Time;durP1;ratioP1;P1;durP2;ratioP2;P2;SDS_P1;SDS_P2;PMS_P1;PMS_P2;Temp;Humidity;BMP_temperature;BMP_pressure;BME280_temperature;BME280_humidity;BME280_pressure;Samples;Min_cycle;Max_cycle;Signal;HPM_P1;HPM_P2
2021/04/05 00:08:17;;;;;;;43.08;30.17;;;5.60;99.90;;;;;;5050483;28;20701;-34
2021/04/05 00:14:50;;;;;;;43.95;30.90;;;5.60;99.90;;;;;;5049926;28;20258;-35
2021/04/05 00:17:17;;;;;;;47.95;32.95;;;5.60;99.90;;;;;;5053160;28;20679;-34
2021/04/05 00:19:44;;;;;;;46.53;33.67;;;5.60;99.90;;;;;;5053250;28;20211;-35
2021/04/05 00:22:11;;;;;;;44.53;32.97;;;5.70;99.90;;;;;;5052964;28;20286;-35
2021/04/05 00:24:38;;;;;;;47.47;32.88;;;5.60;99.90;;;;;;5053118;28;20565;-36
2021/04/05 00:27:07;;;;;;;44.40;32.15;;;5.60;99.90;;;;;;5056905;28;20194;-36
2021/04/05 00:29:34;;;;;;;41.75;32.08;;;5.70;99.90;;;;;;5061490;28;20215;-35
2021/04/05 00:32:05;;;;;;;39.10;30.10;;;5.70;99.90;;;;;;5051752;28;20462;-35
2021/04/05 00:34:37;;;;;;;48.30;33.78;;;5.70;99.90;;;;;;5052515;28;20203;-35
2021/04/05 00:37:04;;;;;;;44.85;31.83;;;5.90;99.90;;;;;;5052966;28;20195;-35
2021/04/05 00:39:32;;;;;;;40.45;30.45;;;5.90;99.90;;;;;;5053052;28;20210;-35
2021/04/05 00:42:00;;;;;;;43.55;30.65;;;6.00;99.90;;;;;;5052431;28;20191;-36
2021/04/05 00:44:29;;;;;;;45.47;33.00;;;5.90;99.90;;;;;;5052045;28;20741;-36
2021/04/05 00:46:57;;;;;;;45.53;31.35;;;5.90;99.90;;;;;;5052855;28;20626;-35
2021/04/05 00:49:23;;;;;;;40.67;31.20;;;5.80;99.90;;;;;;5052693;28;20210;-36
2021/04/05 00:51:50;;;;;;;50.20;33.90;;;5.90;99.90;;;;;;5051249;28;20208;-36
2021/04/05 00:54:17;;;;;;;50.33;33.40;;;5.80;99.90;;;;;;5053173;28;20707;-34
2021/04/05 00:56:45;;;;;;;42.90;31.70;;;5.70;99.90;;;;;;5053880;28;20275;-36
2021/04/05 00:59:12;;;;;;;39.20;30.92;;;5.70;99.90;;;;;;5052350;28;20207;-37
2021/04/05 01:01:39;;;;;;;40.20;30.92;;;5.70;99.90;;;;;;5052556;28;20253;-34
2021/04/05 01:04:06;;;;;;;44.13;31.40;;;5.60;99.90;;;;;;5052147;28;20241;-35
2021/04/05 01:06:35;;;;;;;45.63;31.85;;;5.70;99.90;;;;;;5052357;28;20248;-36
2021/04/05 01:09:04;;;;;;;43.95;30.48;;;5.70;99.90;;;;;;5052281;28;20203;-34
2021/04/05 01:11:32;;;;;;;39.17;29.33;;;5.70;99.90;;;;;;5052150;28;20235;-36
2021/04/05 01:13:59;;;;;;;37.72;28.25;;;5.80;99.90;;;;;;5051935;28;20218;-36
2021/04/05 01:16:28;;;;;;;38.63;26.33;;;5.70;99.90;;;;;;5052286;28;20249;-35
2021/04/05 01:18:55;;;;;;;41.80;30.10;;;5.70;99.90;;;;;;5052222;28;20196;-36
2021/04/05 01:25:14;;;;;;;40.75;28.25;;;5.60;99.90;;;;;;5048228;28;20262;-35
2021/04/05 01:31:44;;;;;;;36.88;26.75;;;5.60;99.90;;;;;;5047241;28;20203;-36
2021/04/05 01:34:57;;;;;;;38.10;25.80;;;5.60;99.90;;;;;;5059540;28;20214;-37
2021/04/05 01:38:14;;;;;;;37.78;27.63;;;5.60;99.90;;;;;;5038241;28;20200;-36
2021/04/05 01:40:46;;;;;;;34.67;25.25;;;5.60;99.90;;;;;;5045409;28;20215;-35
2021/04/05 01:43:13;;;;;;;36.72;26.00;;;5.60;99.90;;;;;;5050405;28;20187;-37
2021/04/05 01:45:40;;;;;;;41.95;28.83;;;5.60;99.90;;;;;;5047786;28;20362;-35
2021/04/05 01:52:26;;;;;;;34.42;26.73;;;5.70;99.90;;;;;;5042609;28;20261;-35
2021/04/05 01:55:00;;;;;;;35.00;25.52;;;5.70;99.90;;;;;;5044020;28;20218;-45
2021/04/05 01:58:14;;;;;;;36.70;27.75;;;5.70;99.90;;;;;;5044895;28;20273;-34
2021/04/05 02:00:41;;;;;;;33.47;23.73;;;5.70;99.90;;;;;;5046378;28;20287;-35
2021/04/05 02:03:10;;;;;;;40.15;27.58;;;5.80;99.90;;;;;;5050737;28;20211;-36
2021/04/05 02:05:42;;;;;;;39.65;29.13;;;5.80;99.90;;;;;;5049324;28;20206;-37
2021/04/05 02:08:09;;;;;;;38.90;28.02;;;5.80;99.90;;;;;;5051229;28;20203;-35
2021/04/05 02:14:24;;;;;;;43.13;30.38;;;5.80;99.90;;;;;;5041452;28;20586;-36
2021/04/05 02:16:52;;;;;;;41.55;27.52;;;5.80;99.90;;;;;;5050884;28;20194;-34
2021/04/05 02:19:19;;;;;;;36.08;28.08;;;5.80;99.90;;;;;;5050868;28;20726;-35
2021/04/05 02:21:47;;;;;;;37.47;27.42;;;5.80;99.90;;;;;;5050741;28;20249;-36
2021/04/05 02:24:14;;;;;;;46.08;30.92;;;5.80;99.90;;;;;;5050954;28;20278;-35
2021/04/05 02:26:48;;;;;;;39.20;28.60;;;5.70;99.90;;;;;;5050614;28;20635;-35
2021/04/05 02:29:46;;;;;;;35.28;26.67;;;5.80;99.90;;;;;;5049775;28;20199;-32
2021/04/05 02:32:14;;;;;;;36.40;26.88;;;5.80;99.90;;;;;;5048710;28;20221;-35
2021/04/05 02:43:00;;;;;;;41.78;28.85;;;5.90;99.90;;;;;;5043050;28;20222;-35
2021/04/05 02:50:11;;;;;;;37.30;26.92;;;5.90;99.90;;;;;;5044056;28;20221;-35
2021/04/05 02:53:03;;;;;;;46.58;28.33;;;5.90;99.90;;;;;;5045022;28;20223;-35
2021/04/05 02:55:31;;;;;;;39.53;29.25;;;5.90;99.90;;;;;;5050009;28;20206;-34
2021/04/05 02:57:58;;;;;;;44.92;29.38;;;5.90;99.90;;;;;;5051903;28;20226;-35
2021/04/05 03:00:27;;;;;;;41.78;31.73;;;5.90;99.90;;;;;;5050532;28;20215;-35
2021/04/05 03:02:55;;;;;;;38.45;29.23;;;6.00;99.90;;;;;;5050028;28;20218;-36
2021/04/05 03:05:23;;;;;;;37.28;29.35;;;6.00;99.90;;;;;;5050127;28;20277;-36
2021/04/05 03:07:54;;;;;;;37.58;27.35;;;6.00;99.90;;;;;;5051332;28;20278;-36
2021/04/05 03:10:25;;;;;;;42.30;30.05;;;6.00;99.90;;;;;;5046811;28;20296;-35
2021/04/05 03:12:57;;;;;;;44.33;29.17;;;6.10;99.90;;;;;;5045143;28;20229;-34
2021/04/05 03:19:31;;;;;;;37.97;28.50;;;6.20;99.90;;;;;;5045751;28;20209;-35
2021/04/05 03:21:59;;;;;;;43.47;29.75;;;6.20;99.90;;;;;;5050688;28;20235;-35
2021/04/05 03:28:16;;;;;;;37.90;28.15;;;6.20;99.90;;;;;;5048512;28;20210;-34
2021/04/05 03:30:46;;;;;;;47.22;30.65;;;6.30;99.90;;;;;;5062478;22;20227;-38
2021/04/05 03:33:18;;;;;;;43.22;31.48;;;6.30;99.90;;;;;;5049331;28;20310;-37
2021/04/05 03:35:50;;;;;;;39.55;29.67;;;6.30;99.90;;;;;;5050096;28;20203;-37
2021/04/05 03:38:18;;;;;;;41.72;31.58;;;6.30;99.90;;;;;;5050397;28;20199;-39
2021/04/05 03:40:45;;;;;;;44.03;30.20;;;6.40;99.90;;;;;;5049841;28;20218;-38
2021/04/05 03:43:21;;;;;;;41.72;32.03;;;6.40;99.90;;;;;;5049837;28;20742;-37
2021/04/05 03:45:52;;;;;;;43.63;31.88;;;6.40;99.90;;;;;;5032385;28;20666;-37
2021/04/05 03:48:27;;;;;;;44.00;32.10;;;6.40;99.90;;;;;;5050226;28;20714;-36
2021/04/05 03:51:03;;;;;;;46.72;32.08;;;6.40;99.90;;;;;;5050360;28;20214;-39
2021/04/05 03:53:39;;;;;;;41.30;31.98;;;6.40;99.90;;;;;;5049741;28;20305;-38
2021/04/05 03:56:11;;;;;;;44.65;31.92;;;6.40;99.90;;;;;;5050012;28;20199;-38
2021/04/05 03:58:43;;;;;;;42.38;32.38;;;6.40;99.90;;;;;;5031965;28;20208;-38
2021/04/05 04:01:12;;;;;;;38.85;29.23;;;6.50;99.90;;;;;;5049790;28;20311;-38
2021/04/05 04:03:48;;;;;;;41.13;29.10;;;6.50;99.90;;;;;;5031901;28;20191;-39
2021/04/05 04:06:19;;;;;;;42.90;30.52;;;6.50;99.90;;;;;;5049942;28;20200;-36
2021/04/05 04:08:47;;;;;;;35.88;28.70;;;6.50;99.90;;;;;;5050237;28;20195;-38
2021/04/05 04:11:20;;;;;;;36.00;29.70;;;6.50;99.90;;;;;;5049380;28;20207;-37
2021/04/05 04:13:48;;;;;;;40.88;31.55;;;6.40;99.90;;;;;;5049477;28;20227;-36
2021/04/05 04:16:15;;;;;;;44.60;30.55;;;6.50;99.90;;;;;;5049669;28;20311;-37
2021/04/05 04:18:43;;;;;;;44.33;28.95;;;6.50;99.90;;;;;;5044876;28;20637;-38
2021/04/05 04:21:11;;;;;;;37.28;31.20;;;6.50;99.90;;;;;;5033262;28;20215;-35
2021/04/05 04:23:39;;;;;;;54.30;30.05;;;6.50;99.90;;;;;;5033113;28;20409;-36
2021/04/05 04:26:07;;;;;;;41.42;32.22;;;6.50;99.90;;;;;;5033676;28;20266;-36
2021/04/05 04:28:34;;;;;;;41.65;29.23;;;6.50;99.90;;;;;;5033393;28;20196;-37
2021/04/05 04:31:04;;;;;;;39.42;29.73;;;6.50;99.90;;;;;;5033193;28;20309;-37
2021/04/05 04:33:32;;;;;;;50.65;30.55;;;6.60;99.90;;;;;;5033144;28;20216;-37
2021/04/05 04:35:59;;;;;;;37.55;31.35;;;6.60;99.90;;;;;;5033252;28;20192;-38
2021/04/05 04:38:27;;;;;;;46.15;31.42;;;6.60;99.90;;;;;;5033452;28;20690;-38
2021/04/05 04:40:54;;;;;;;41.72;29.52;;;6.60;99.90;;;;;;5033165;28;20228;-40
2021/04/05 04:43:21;;;;;;;48.85;30.45;;;6.60;99.90;;;;;;5032742;28;20211;-40
2021/04/05 04:45:48;;;;;;;40.38;30.60;;;6.50;99.90;;;;;;5032999;28;20196;-38
2021/04/05 04:48:16;;;;;;;39.30;29.30;;;6.60;99.90;;;;;;5032746;28;20196;-38
2021/04/05 04:50:42;;;;;;;43.50;29.80;;;6.60;99.90;;;;;;5032727;28;20232;-36
2021/04/05 04:53:09;;;;;;;33.65;29.17;;;6.60;99.90;;;;;;5032587;28;20227;-36
2021/04/05 04:55:38;;;;;;;44.53;31.13;;;6.60;99.90;;;;;;5032497;28;20282;-37
2021/04/05 04:58:05;;;;;;;44.20;32.30;;;6.60;99.90;;;;;;5032714;28;20196;-38
2021/04/05 05:00:39;;;;;;;38.95;29.67;;;6.70;99.90;;;;;;5032532;28;20220;-37
2021/04/05 05:03:06;;;;;;;42.45;31.00;;;6.60;99.90;;;;;;5035119;28;20282;-36
2021/04/05 05:05:36;;;;;;;40.47;28.50;;;6.70;99.90;;;;;;5032252;28;20192;-37
2021/04/05 05:08:05;;;;;;;41.17;27.92;;;6.70;99.90;;;;;;5032570;28;20571;-35
2021/04/05 05:10:32;;;;;;;38.78;28.85;;;6.70;99.90;;;;;;5032482;28;20266;-37
2021/04/05 05:12:59;;;;;;;40.00;29.23;;;6.70;99.90;;;;;;5032360;28;20303;-37
2021/04/05 05:15:29;;;;;;;44.88;30.98;;;6.70;99.90;;;;;;5032270;28;20203;-37
2021/04/05 05:17:58;;;;;;;34.47;26.50;;;6.70;99.90;;;;;;5032202;28;20231;-38
2021/04/05 05:20:26;;;;;;;41.10;30.02;;;6.70;99.90;;;;;;5013224;28;20589;-39
2021/04/05 05:22:58;;;;;;;44.28;28.63;;;6.60;99.90;;;;;;5012763;28;20217;-42
2021/04/05 05:25:25;;;;;;;41.03;31.65;;;6.50;99.90;;;;;;5012218;28;20210;-42
2021/04/05 05:27:57;;;;;;;39.13;25.20;;;6.50;99.90;;;;;;5012875;28;20193;-38
2021/04/05 05:30:25;;;;;;;34.85;28.08;;;6.40;99.90;;;;;;5012565;28;20240;-38
2021/04/05 05:32:54;;;;;;;47.45;30.13;;;6.30;99.90;;;;;;5012170;28;20221;-37
2021/04/05 05:35:22;;;;;;;49.63;31.00;;;6.40;99.90;;;;;;5011981;28;20200;-39
2021/04/05 05:37:50;;;;;;;44.97;29.38;;;6.30;99.90;;;;;;5012269;28;20283;-37
2021/04/05 05:40:23;;;;;;;37.78;30.17;;;6.30;99.90;;;;;;5012080;28;20247;-38
2021/04/05 05:43:09;;;;;;;42.00;29.15;;;6.20;99.90;;;;;;5011956;28;20200;-40
2021/04/05 05:45:43;;;;;;;39.38;29.13;;;6.20;99.90;;;;;;5011953;28;20680;-39
2021/04/05 05:48:19;;;;;;;34.88;27.65;;;6.10;99.90;;;;;;4994690;28;20232;-38
2021/04/05 05:50:53;;;;;;;36.38;26.02;;;6.10;99.90;;;;;;5012002;28;20631;-37
2021/04/05 05:53:31;;;;;;;31.67;26.48;;;6.10;99.90;;;;;;5011758;28;20220;-41
2021/04/05 05:56:16;;;;;;;38.83;26.48;;;6.20;99.90;;;;;;5012258;28;20212;-36
2021/04/05 05:58:49;;;;;;;37.60;26.45;;;6.10;99.90;;;;;;5012558;28;20192;-38
2021/04/05 06:01:26;;;;;;;32.65;24.92;;;6.00;99.90;;;;;;5012163;28;20217;-38
2021/04/05 06:04:01;;;;;;;35.70;29.02;;;6.00;99.90;;;;;;5011607;28;20216;-37
2021/04/05 06:06:41;;;;;;;32.15;24.73;;;6.00;99.90;;;;;;5011764;28;20284;-38
2021/04/05 06:09:15;;;;;;;30.95;24.77;;;6.00;99.90;;;;;;5011727;28;20205;-37
2021/04/05 06:11:54;;;;;;;31.10;25.15;;;6.00;99.90;;;;;;5011611;28;20227;-38
2021/04/05 06:14:46;;;;;;;29.58;22.58;;;6.10;99.90;;;;;;5128890;27;20998;-37
2021/04/05 06:17:21;;;;;;;39.17;23.35;;;6.10;99.90;;;;;;5128765;27;20200;-36
2021/04/05 06:19:50;;;;;;;39.55;24.27;;;6.10;99.90;;;;;;5125613;27;20304;-37
2021/04/05 06:22:29;;;;;;;28.33;19.95;;;6.10;99.90;;;;;;5108241;28;20262;-36
2021/04/05 06:25:04;;;;;;;31.05;22.15;;;6.10;99.90;;;;;;5113719;22;20230;-34
2021/04/05 06:27:40;;;;;;;28.02;21.25;;;6.10;99.90;;;;;;5067946;28;21103;-35
2021/04/05 06:30:17;;;;;;;24.05;20.63;;;6.00;99.90;;;;;;5067677;28;20199;-35
2021/04/05 06:32:55;;;;;;;23.50;18.30;;;6.00;99.90;;;;;;5066094;28;20239;-38
2021/04/05 06:35:54;;;;;;;24.40;20.65;;;6.00;99.90;;;;;;5075836;28;20297;-35
2021/04/05 06:38:25;;;;;;;24.40;19.15;;;6.10;99.90;;;;;;5087581;28;20718;-37
2021/04/05 06:40:54;;;;;;;24.33;19.52;;;6.00;99.90;;;;;;5087574;28;20581;-38
2021/04/05 06:43:39;;;;;;;26.27;20.38;;;6.10;99.90;;;;;;5087119;28;20271;-38
2021/04/05 06:46:21;;;;;;;28.60;20.08;;;6.10;99.90;;;;;;5087606;28;20210;-37
2021/04/05 06:49:13;;;;;;;28.23;21.70;;;6.10;99.90;;;;;;5087565;28;20201;-36
2021/04/05 06:51:57;;;;;;;23.15;19.00;;;6.10;99.90;;;;;;5087173;28;20195;-38
2021/04/05 06:54:59;;;;;;;26.13;20.13;;;6.10;99.90;;;;;;5086950;28;20504;-37
2021/04/05 06:57:36;;;;;;;24.23;18.25;;;6.10;99.90;;;;;;5086921;28;20688;-40
2021/04/05 07:00:07;;;;;;;26.48;18.10;;;6.10;99.90;;;;;;5087104;28;20206;-35
2021/04/05 07:03:09;;;;;;;25.55;18.48;;;6.00;99.90;;;;;;5087282;28;20194;-37
2021/04/05 07:05:54;;;;;;;28.52;19.40;;;5.90;99.90;;;;;;5074109;28;20568;-35
2021/04/05 07:08:29;;;;;;;25.23;19.90;;;6.00;99.90;;;;;;5087083;28;20684;-37
2021/04/05 07:11:09;;;;;;;26.65;21.98;;;6.00;99.90;;;;;;5087101;28;20197;-37
2021/04/05 07:13:49;;;;;;;23.27;20.23;;;6.10;99.90;;;;;;5086509;28;20634;-36
2021/04/05 07:16:30;;;;;;;23.10;19.85;;;6.10;99.90;;;;;;5087011;28;20221;-38
2021/04/05 07:19:10;;;;;;;25.38;20.00;;;6.00;99.90;;;;;;5086825;28;20209;-36
2021/04/05 07:21:43;;;;;;;9.80;5.50;;;6.00;99.90;;;;;;5087671;28;20222;-34
2021/04/05 07:24:19;;;;;;;4.53;3.25;;;5.60;99.90;;;;;;5083327;28;20282;-38
2021/04/05 07:26:52;;;;;;;1.65;1.55;;;5.20;99.90;;;;;;5073380;28;20207;-35
2021/04/05 07:29:24;;;;;;;2.78;1.85;;;5.00;99.90;;;;;;5073107;28;20233;-37
2021/04/05 07:31:58;;;;;;;1.50;1.40;;;5.00;99.90;;;;;;5072973;28;20194;-34
2021/04/05 07:34:46;;;;;;;5.22;1.77;;;4.90;99.90;;;;;;5072850;28;20276;-38
2021/04/05 07:37:24;;;;;;;1.08;1.00;;;4.80;99.90;;;;;;5073086;28;20202;-35
2021/04/05 07:40:00;;;;;;;1.60;1.20;;;4.80;99.90;;;;;;5072858;28;20739;-35
2021/04/05 07:42:33;;;;;;;1.23;1.20;;;4.80;99.90;;;;;;5072649;28;20190;-38
2021/04/05 07:45:07;;;;;;;1.42;1.40;;;4.60;99.90;;;;;;5072627;28;20219;-36
2021/04/05 07:47:42;;;;;;;2.25;1.10;;;4.50;99.90;;;;;;5073303;28;20248;-36
2021/04/05 07:50:16;;;;;;;2.60;0.90;;;4.50;99.90;;;;;;5072645;28;20194;-34
2021/04/05 07:52:54;;;;;;;1.65;1.05;;;4.50;99.90;;;;;;5072703;28;20222;-34
2021/04/05 07:55:23;;;;;;;1.42;1.20;;;4.70;99.90;;;;;;5072473;28;20768;-36
2021/04/05 07:58:01;;;;;;;0.85;0.85;;;4.80;99.90;;;;;;5072653;28;20256;-39
2021/04/05 08:00:36;;;;;;;4.13;1.45;;;4.70;99.90;;;;;;5072674;28;20289;-36
2021/04/05 08:03:08;;;;;;;3.63;1.00;;;4.60;99.90;;;;;;5072475;28;20673;-38
2021/04/05 08:05:56;;;;;;;1.35;0.88;;;4.70;99.90;;;;;;5072602;28;20304;-37
2021/04/05 08:08:37;;;;;;;3.22;1.20;;;4.70;99.90;;;;;;5072404;28;20677;-34
2021/04/05 08:11:26;;;;;;;2.25;1.23;;;4.60;99.90;;;;;;5071945;28;20256;-34
2021/04/05 08:14:06;;;;;;;3.60;1.13;;;4.50;99.90;;;;;;5067539;28;20242;-36
2021/04/05 08:16:41;;;;;;;1.80;1.00;;;4.20;99.90;;;;;;5072077;28;20717;-38
2021/04/05 08:19:14;;;;;;;3.10;1.08;;;4.10;99.90;;;;;;5081140;28;20673;-36
2021/04/05 08:21:50;;;;;;;2.00;1.20;;;4.20;99.90;;;;;;5092825;28;20209;-34
2021/04/05 08:24:27;;;;;;;3.53;2.10;;;4.40;99.90;;;;;;5083537;28;20723;-33
2021/04/05 08:27:01;;;;;;;5.63;1.77;;;4.40;99.90;;;;;;5072058;28;20293;-36
2021/04/05 08:29:35;;;;;;;1.92;1.23;;;4.30;99.90;;;;;;5072150;28;20209;-38
2021/04/05 08:32:33;;;;;;;1.90;1.10;;;4.50;99.90;;;;;;5071609;28;20720;-38
2021/04/05 08:35:15;;;;;;;2.40;1.58;;;4.80;99.90;;;;;;5059564;28;20717;-38
2021/04/05 08:37:54;;;;;;;5.57;1.98;;;4.80;99.90;;;;;;5071436;28;20578;-37
2021/04/05 08:40:25;;;;;;;5.53;1.25;;;5.00;99.90;;;;;;5071975;28;20194;-36
2021/04/05 08:43:04;;;;;;;2.35;1.65;;;5.00;99.90;;;;;;5071581;28;20220;-37
2021/04/05 08:45:38;;;;;;;4.25;1.50;;;5.00;99.90;;;;;;5071567;28;20735;-38
2021/04/05 08:48:09;;;;;;;2.78;1.23;;;4.90;99.90;;;;;;5071676;28;20222;-38
2021/04/05 08:50:40;;;;;;;1.80;1.20;;;4.90;99.90;;;;;;5070148;28;20570;-35
2021/04/05 08:53:09;;;;;;;2.38;1.30;;;5.00;99.90;;;;;;5071395;28;20272;-33
2021/04/05 08:55:40;;;;;;;2.45;1.70;;;5.00;99.90;;;;;;5083090;28;20766;-35
2021/04/05 08:58:11;;;;;;;2.97;1.52;;;4.90;99.90;;;;;;5070635;28;20187;-38
2021/04/05 09:00:41;;;;;;;2.15;1.95;;;4.90;99.90;;;;;;5071104;28;20195;-35
2021/04/05 09:03:10;;;;;;;3.60;1.55;;;4.90;99.90;;;;;;5090245;22;20292;-79
2021/04/05 09:05:42;;;;;;;2.08;1.80;;;5.00;99.90;;;;;;5049702;28;20223;-81
2021/04/05 09:08:10;;;;;;;7.10;1.90;;;5.10;99.90;;;;;;5076240;28;20194;-79
2021/04/05 09:10:45;;;;;;;3.05;1.90;;;4.90;99.90;;;;;;5075293;28;20287;-79
2021/04/05 09:13:17;;;;;;;4.97;2.05;;;5.00;99.90;;;;;;5069884;28;20202;-82
2021/04/05 09:16:26;;;;;;;2.78;1.67;;;5.10;99.90;;;;;;5087748;22;20824;-35
2021/04/05 09:19:21;;;;;;;15.20;10.82;;;5.00;99.90;;;;;;5066888;28;20199;-38
2021/04/05 09:21:59;;;;;;;4.38;2.35;;;5.10;99.90;;;;;;5067638;28;20202;-35
2021/04/05 09:24:37;;;;;;;7.35;3.05;;;5.20;99.90;;;;;;5050674;28;20222;-37
2021/04/05 09:30:01;;;;;;;3.78;1.90;;;5.30;99.90;;;;;;5047912;28;20301;-33
2021/04/05 09:32:41;;;;;;;4.93;2.47;;;5.00;99.90;;;;;;5049406;28;20191;-33
2021/04/05 09:35:34;;;;;;;6.35;3.03;;;5.10;99.90;;;;;;5050171;28;20291;-34
2021/04/05 09:38:21;;;;;;;8.02;3.05;;;5.10;99.90;;;;;;5002410;28;20725;-34
2021/04/05 09:41:17;;;;;;;8.55;3.13;;;5.10;99.90;;;;;;5050056;28;20294;-35
2021/04/05 09:44:21;;;;;;;10.10;3.22;;;5.30;99.90;;;;;;5049682;28;20191;-35
2021/04/05 09:47:05;;;;;;;16.55;1.92;;;5.30;99.90;;;;;;5049742;28;20195;-35
2021/04/05 09:49:47;;;;;;;4.30;2.80;;;5.40;99.90;;;;;;5049338;28;20218;-35
2021/04/05 09:52:30;;;;;;;9.25;3.08;;;5.20;99.90;;;;;;5049600;28;20223;-35
2021/04/05 09:55:02;;;;;;;10.40;4.00;;;5.00;99.90;;;;;;5047839;28;20724;-36
2021/04/05 09:57:36;;;;;;;6.25;2.75;;;5.00;99.90;;;;;;5049549;28;20756;-36
2021/04/05 10:00:11;;;;;;;8.95;2.28;;;5.00;99.90;;;;;;5050059;28;20207;-34
2021/04/05 10:02:46;;;;;;;5.20;2.40;;;5.00;99.90;;;;;;5049047;28;20199;-35
2021/04/05 10:05:14;;;;;;;5.40;1.48;;;4.00;99.90;;;;;;5049779;28;20191;-34
2021/04/05 10:07:44;;;;;;;6.88;2.05;;;3.10;99.90;;;;;;5049366;28;20207;-36
2021/04/05 10:10:14;;;;;;;5.22;1.55;;;2.90;99.90;;;;;;5049566;28;20229;-33
2021/04/05 10:12:42;;;;;;;4.15;1.58;;;3.10;99.90;;;;;;5049365;28;20196;-34
2021/04/05 10:15:13;;;;;;;5.30;1.60;;;3.50;99.90;;;;;;5049122;28;20670;-34
2021/04/05 10:17:47;;;;;;;3.47;1.58;;;3.70;99.90;;;;;;5049608;28;20287;-33
2021/04/05 10:20:15;;;;;;;2.95;1.45;;;3.80;99.90;;;;;;5049405;28;20187;-33
2021/04/05 10:22:47;;;;;;;6.00;1.70;;;4.00;99.90;;;;;;5048950;28;20747;-33
2021/04/05 10:25:18;;;;;;;15.38;2.08;;;4.30;99.90;;;;;;5048825;28;20191;-35
2021/04/05 10:27:48;;;;;;;3.97;1.65;;;4.40;99.90;;;;;;5031125;28;20225;-34
2021/04/05 10:30:18;;;;;;;2.67;1.42;;;4.30;99.90;;;;;;5049080;28;20238;-37
2021/04/05 10:32:47;;;;;;;3.50;2.08;;;4.00;99.90;;;;;;5049102;28;20206;-36
2021/04/05 10:35:17;;;;;;;4.95;1.50;;;2.90;99.90;;;;;;5049562;28;20202;-36
2021/04/05 10:37:46;;;;;;;1.65;1.52;;;2.70;99.90;;;;;;5049443;28;20253;-35
2021/04/05 10:40:16;;;;;;;4.68;1.92;;;2.70;99.90;;;;;;5049509;28;20187;-34
2021/04/05 10:42:48;;;;;;;7.88;4.35;;;2.60;99.90;;;;;;5049272;28;20284;-35
2021/04/05 10:45:20;;;;;;;5.13;3.00;;;2.80;99.90;;;;;;5049515;28;20409;-35
2021/04/05 10:47:55;;;;;;;3.22;2.33;;;2.80;99.90;;;;;;5049565;28;20254;-35
2021/04/05 10:50:28;;;;;;;9.00;5.45;;;3.00;99.90;;;;;;5049357;28;20203;-36
2021/04/05 10:53:05;;;;;;;3.35;2.30;;;3.00;99.90;;;;;;5049231;28;20718;-36
2021/04/05 10:55:32;;;;;;;12.73;6.70;;;2.80;99.90;;;;;;5049097;28;20686;-35
2021/04/05 10:58:02;;;;;;;4.95;3.20;;;2.90;99.90;;;;;;5049204;28;20215;-36
2021/04/05 11:00:37;;;;;;;5.30;2.72;;;3.00;99.90;;;;;;5051263;28;20205;-40
2021/04/05 11:03:13;;;;;;;5.60;3.22;;;3.30;99.90;;;;;;5052959;28;20206;-38
2021/04/05 11:05:43;;;;;;;4.15;2.60;;;3.60;99.90;;;;;;5052939;28;20199;-37
2021/04/05 11:08:10;;;;;;;2.67;2.33;;;3.80;99.90;;;;;;5052987;28;20219;-38
2021/04/05 11:10:38;;;;;;;6.32;2.50;;;3.90;99.90;;;;;;5052814;28;20196;-35
2021/04/05 11:13:08;;;;;;;3.13;1.50;;;4.10;99.90;;;;;;5052675;28;20227;-36
2021/04/05 11:15:39;;;;;;;8.13;4.13;;;4.10;99.90;;;;;;5052827;28;20203;-37
2021/04/05 11:18:10;;;;;;;6.00;2.97;;;4.60;99.90;;;;;;5052673;28;20215;-38
2021/04/05 11:20:40;;;;;;;7.20;3.47;;;4.90;99.90;;;;;;5052856;28;20682;-37
2021/04/05 11:23:10;;;;;;;7.10;3.53;;;4.90;99.90;;;;;;5035083;28;20188;-36
2021/04/05 11:25:40;;;;;;;8.57;4.05;;;4.70;99.90;;;;;;5052573;28;20678;-36
2021/04/05 11:28:10;;;;;;;6.97;3.92;;;4.90;99.90;;;;;;5052834;28;20334;-35
2021/04/05 11:30:39;;;;;;;4.35;2.55;;;5.10;99.90;;;;;;5052438;28;20199;-37
2021/04/05 11:33:11;;;;;;;6.38;3.67;;;5.30;99.90;;;;;;5052478;28;20219;-35
2021/04/05 11:35:40;;;;;;;22.33;12.73;;;5.10;99.90;;;;;;5052186;28;20196;-37
2021/04/05 11:38:13;;;;;;;9.98;2.70;;;4.90;99.90;;;;;;5052215;28;20223;-35
2021/04/05 11:40:41;;;;;;;7.72;2.83;;;5.10;99.90;;;;;;5052263;28;20204;-36
2021/04/05 11:43:15;;;;;;;12.10;3.47;;;5.00;99.90;;;;;;5052705;28;20238;-35
2021/04/05 11:45:45;;;;;;;6.35;2.55;;;5.10;99.90;;;;;;5052224;28;20203;-36
2021/04/05 11:48:17;;;;;;;16.42;11.50;;;3.80;99.90;;;;;;5052107;28;20590;-35
2021/04/05 11:50:44;;;;;;;24.83;15.82;;;2.40;99.90;;;;;;5052371;28;20686;-36
2021/04/05 11:53:21;;;;;;;39.90;28.23;;;1.80;99.90;;;;;;5034125;28;20212;-36
2021/04/05 11:55:49;;;;;;;13.05;3.85;;;1.70;99.90;;;;;;5052785;28;20195;-35
2021/04/05 11:58:25;;;;;;;2.83;2.45;;;2.10;99.90;;;;;;5052269;28;20269;-37
2021/04/05 12:00:58;;;;;;;6.05;2.40;;;2.40;99.90;;;;;;5052325;28;20203;-37
2021/04/05 12:03:33;;;;;;;7.75;2.20;;;2.50;99.90;;;;;;5051939;28;20191;-38
2021/04/05 12:06:07;;;;;;;9.30;4.65;;;3.00;99.90;;;;;;5052400;28;20199;-35
2021/04/05 12:08:40;;;;;;;5.93;3.85;;;3.80;99.90;;;;;;5052311;28;20215;-38
2021/04/05 12:11:09;;;;;;;5.53;2.55;;;4.40;99.90;;;;;;5051692;28;20199;-38
2021/04/05 12:13:41;;;;;;;7.00;2.83;;;4.10;99.90;;;;;;5051399;28;20218;-38
2021/04/05 12:16:10;;;;;;;5.93;1.85;;;3.50;99.90;;;;;;5051627;28;20203;-36
2021/04/05 12:18:38;;;;;;;5.75;2.80;;;3.40;99.90;;;;;;5052193;28;20239;-38
2021/04/05 12:21:08;;;;;;;8.48;2.80;;;3.50;99.90;;;;;;5051519;28;20202;-39
2021/04/05 12:23:36;;;;;;;8.55;2.10;;;4.10;99.90;;;;;;5051401;28;20202;-38
2021/04/05 12:26:03;;;;;;;3.90;1.73;;;5.20;99.90;;;;;;5051575;28;20203;-37
2021/04/05 12:28:36;;;;;;;6.28;2.05;;;6.50;99.90;;;;;;5033474;28;20222;-37
2021/04/05 12:31:05;;;;;;;10.85;3.15;;;6.90;99.90;;;;;;5051306;28;20663;-37
2021/04/05 12:33:34;;;;;;;9.57;2.95;;;6.60;99.90;;;;;;5051390;28;20728;-37
2021/04/05 12:36:04;;;;;;;7.07;3.05;;;6.20;99.90;;;;;;5033708;28;20206;-36
2021/04/05 12:38:36;;;;;;;6.88;2.78;;;6.10;99.90;;;;;;5051455;28;20355;-35
2021/04/05 12:41:05;;;;;;;6.50;1.90;;;5.30;99.90;;;;;;5051230;28;20280;-35
2021/04/05 12:43:34;;;;;;;2.83;2.08;;;3.70;99.90;;;;;;5050768;28;20586;-35
2021/04/05 12:46:03;;;;;;;6.20;3.78;;;2.70;99.90;;;;;;5051106;28;20301;-36
2021/04/05 12:48:32;;;;;;;9.00;3.28;;;2.40;99.90;;;;;;5051166;28;20482;-36
2021/04/05 12:51:03;;;;;;;6.78;2.75;;;2.30;99.90;;;;;;5051009;28;20211;-35
2021/04/05 12:53:32;;;;;;;6.05;1.95;;;2.60;99.90;;;;;;5050810;28;20302;-36
2021/04/05 12:56:00;;;;;;;7.03;2.72;;;2.70;99.90;;;;;;5051082;28;20199;-35
2021/04/05 12:58:30;;;;;;;4.68;1.65;;;2.60;99.90;;;;;;5050708;28;20211;-36
2021/04/05 13:00:57;;;;;;;3.92;2.25;;;2.40;99.90;;;;;;5051238;28;20261;-36
2021/04/05 13:03:29;;;;;;;2.50;1.65;;;2.60;99.90;;;;;;5050835;28;20568;-36
2021/04/05 13:06:00;;;;;;;3.33;2.53;;;3.30;99.90;;;;;;5032963;28;20221;-35
2021/04/05 13:08:34;;;;;;;4.28;1.90;;;4.20;99.90;;;;;;5050479;28;20224;-36
2021/04/05 13:11:06;;;;;;;5.60;2.90;;;4.40;99.90;;;;;;5050695;28;20195;-36
2021/04/05 13:13:38;;;;;;;9.13;2.42;;;4.80;99.90;;;;;;5050463;28;20276;-37
2021/04/05 13:16:13;;;;;;;10.52;3.22;;;5.10;99.90;;;;;;5050689;28;20277;-38
2021/04/05 13:18:46;;;;;;;9.68;2.70;;;4.90;99.90;;;;;;5050382;28;20219;-36
2021/04/05 13:21:14;;;;;;;7.15;3.03;;;5.10;99.90;;;;;;5050563;28;20206;-36
2021/04/05 13:23:51;;;;;;;8.80;2.42;;;5.00;99.90;;;;;;5049793;28;20192;-36
2021/04/05 13:26:26;;;;;;;3.85;2.03;;;4.90;99.90;;;;;;5050525;28;20689;-35
2021/04/05 13:28:54;;;;;;;3.55;1.55;;;4.70;99.90;;;;;;5049808;28;20242;-35
2021/04/05 13:31:23;;;;;;;6.68;1.90;;;5.00;99.90;;;;;;5049977;28;20249;-34
2021/04/05 13:33:51;;;;;;;4.53;1.90;;;5.20;99.90;;;;;;5050012;28;20295;-34
2021/04/05 13:36:19;;;;;;;6.07;2.20;;;5.60;99.90;;;;;;5049849;28;20195;-35
2021/04/05 13:38:57;;;;;;;3.75;1.95;;;5.40;99.90;;;;;;5050003;28;20610;-34
2021/04/05 13:41:28;;;;;;;1.73;1.27;;;5.50;99.90;;;;;;5049630;28;20298;-36
2021/04/05 13:43:57;;;;;;;2.83;1.30;;;5.60;99.90;;;;;;5049691;28;20191;-33
2021/04/05 13:46:25;;;;;;;4.35;1.58;;;5.50;99.90;;;;;;5050268;28;20214;-35
2021/04/05 13:48:59;;;;;;;6.55;1.95;;;5.60;99.90;;;;;;5052253;28;20211;-35
2021/04/05 13:51:28;;;;;;;7.80;2.15;;;6.00;99.90;;;;;;5050363;28;20207;-35
2021/04/05 13:54:10;;;;;;;4.18;1.55;;;6.50;99.90;;;;;;5033819;28;20290;-33
2021/04/05 13:56:39;;;;;;;2.25;1.40;;;6.10;99.90;;;;;;5049930;28;20191;-34
2021/04/05 13:59:09;;;;;;;6.00;2.03;;;6.10;99.90;;;;;;5050139;28;20821;-35
2021/04/05 14:01:42;;;;;;;8.35;2.50;;;6.50;99.90;;;;;;5049397;28;20222;-34
2021/04/05 14:04:11;;;;;;;24.48;11.25;;;6.70;99.90;;;;;;5049352;28;20279;-33
2021/04/05 14:06:40;;;;;;;34.95;17.48;;;6.50;99.90;;;;;;5049383;28;20215;-34